Time;durP1;ratioP1;P1;durP2;ratioP2;P2;SDS_P1;SDS_P2;PMS_P1;PMS_P2;Temp;Humidity;BMP_temperature;BMP_pressure;BME280_temperature;BME280_humidity;BME280_pressure;Samples;Min_cycle;Max_cycle;Signal;HPM_P1;HPM_P2
2021/12/13 00:02:23;;;;;;;181.07;58.15;;;;;;;10.27;100.00;102389.31;5000373;28;20057;-74
2021/12/13 00:05:06;;;;;;;169.60;56.35;;;;;;;10.25;100.00;102387.88;4981934;28;20521;-74
2021/12/13 00:07:36;;;;;;;146.63;52.22;;;;;;;10.26;100.00;102390.34;4999745;28;20129;-74
2021/12/13 00:10:13;;;;;;;151.35;52.83;;;;;;;10.21;100.00;102393.06;4981410;28;20072;-74
2021/12/13 00:12:44;;;;;;;167.75;56.30;;;;;;;10.24;100.00;102386.22;4981268;28;20034;-74
2021/12/13 00:15:32;;;;;;;161.63;56.17;;;;;;;10.18;100.00;102390.81;4999331;28;20179;-73
2021/12/13 00:18:00;;;;;;;165.57;53.72;;;;;;;10.25;100.00;102383.25;4999702;28;20108;-73
2021/12/13 00:20:44;;;;;;;168.77;52.92;;;;;;;10.17;100.00;102384.56;4999623;28;20460;-75
2021/12/13 00:23:21;;;;;;;143.90;47.88;;;;;;;10.24;100.00;102388.94;4981887;28;20041;-72
2021/12/13 00:25:51;;;;;;;151.02;52.20;;;;;;;10.16;100.00;102384.84;4981687;28;20192;-73
2021/12/13 00:28:18;;;;;;;123.07;46.80;;;;;;;10.18;100.00;102374.47;4999374;28;20038;-73
2021/12/13 00:31:09;;;;;;;141.00;45.95;;;;;;;10.09;100.00;102384.22;5000504;28;20046;-74
2021/12/13 00:33:56;;;;;;;119.22;43.78;;;;;;;10.16;100.00;102384.84;5000885;28;20042;-74
2021/12/13 00:36:25;;;;;;;122.80;44.95;;;;;;;10.12;100.00;102394.59;5001727;28;20076;-74
2021/12/13 00:38:58;;;;;;;128.18;44.65;;;;;;;10.23;100.00;102395.50;5000384;28;20366;-73
2021/12/13 00:41:28;;;;;;;119.10;43.95;;;;;;;10.19;100.00;102406.13;5000290;28;20048;-74
2021/12/13 00:43:59;;;;;;;121.43;44.97;;;;;;;10.18;100.00;102404.44;4999911;28;20267;-74
2021/12/13 00:46:27;;;;;;;117.70;46.22;;;;;;;10.19;100.00;102417.00;5000949;28;20157;-74
2021/12/13 00:48:56;;;;;;;151.90;53.47;;;;;;;10.22;100.00;102411.03;4978785;28;20853;-74
2021/12/13 00:51:31;;;;;;;164.77;52.65;;;;;;;10.28;100.00;102412.75;4979639;28;20054;-74
2021/12/13 00:54:02;;;;;;;144.88;51.28;;;;;;;10.19;100.00;102414.28;4980578;28;20046;-74
2021/12/13 00:56:58;;;;;;;133.52;49.28;;;;;;;10.26;100.00;102420.31;4981022;28;20046;-73
2021/12/13 00:59:31;;;;;;;122.50;46.67;;;;;;;10.21;100.00;102420.31;4979616;28;20088;-74
2021/12/13 01:02:15;;;;;;;122.15;48.20;;;;;;;10.24;100.00;102430.69;4969431;28;20111;-74
2021/12/13 01:05:04;;;;;;;153.38;52.72;;;;;;;10.24;100.00;102438.88;5003018;28;20056;-74
2021/12/13 01:07:33;;;;;;;145.70;52.35;;;;;;;10.31;100.00;102436.75;5004070;28;20058;-74
2021/12/13 01:10:39;;;;;;;143.13;52.22;;;;;;;10.28;100.00;102431.00;5004520;28;20156;-75
2021/12/13 01:13:44;;;;;;;162.15;57.75;;;;;;;10.28;100.00;102433.75;5004535;28;20087;-74
2021/12/13 01:19:27;;;;;;;149.88;55.45;;;;;;;10.25;100.00;102432.31;5006395;28;20113;-74
2021/12/13 01:22:20;;;;;;;138.02;53.25;;;;;;;10.25;100.00;102431.50;5004716;28;20045;-74
2021/12/13 01:27:28;;;;;;;149.43;56.22;;;;;;;10.21;100.00;102442.13;5007426;28;20125;-74
2021/12/13 01:29:54;;;;;;;171.00;59.65;;;;;;;10.24;100.00;102440.75;5008191;28;20069;-75
2021/12/13 01:32:20;;;;;;;170.88;61.03;;;;;;;10.24;100.00;102441.59;5009112;28;20493;-76
2021/12/13 01:34:46;;;;;;;145.80;55.50;;;;;;;10.28;100.00;102452.81;4991113;28;20105;-74
2021/12/13 01:37:16;;;;;;;156.27;60.45;;;;;;;10.19;100.00;102458.72;5011432;28;20097;-73
2021/12/13 01:39:49;;;;;;;178.95;63.78;;;;;;;10.12;100.00;102452.69;5011256;28;20048;-76
2021/12/13 01:42:20;;;;;;;172.60;64.53;;;;;;;10.09;100.00;102457.81;5010986;28;20056;-74
2021/12/13 01:44:50;;;;;;;166.07;64.00;;;;;;;10.18;100.00;102453.53;5011227;28;20045;-74
2021/12/13 01:47:20;;;;;;;167.88;62.97;;;;;;;10.15;100.00;102451.31;5010950;28;20359;-74
2021/12/13 01:49:51;;;;;;;158.80;60.20;;;;;;;10.04;100.00;102452.34;5010602;28;20050;-74
2021/12/13 01:52:25;;;;;;;145.15;59.58;;;;;;;10.08;100.00;102458.91;5010922;28;20042;-74
2021/12/13 01:54:53;;;;;;;151.40;61.42;;;;;;;10.12;100.00;102462.75;5011573;28;20072;-74
2021/12/13 01:57:26;;;;;;;149.85;60.78;;;;;;;10.07;100.00;102460.00;5013446;28;20036;-74
2021/12/13 02:00:18;;;;;;;160.75;62.17;;;;;;;10.07;100.00;102460.00;5013602;28;20314;-74
2021/12/13 02:02:47;;;;;;;177.00;62.63;;;;;;;10.09;100.00;102460.53;4995954;28;20051;-74
2021/12/13 02:05:28;;;;;;;234.35;75.53;;;;;;;10.12;100.00;102465.47;5015011;28;20038;-74
2021/12/13 02:08:00;;;;;;;183.60;66.35;;;;;;;10.08;100.00;102457.00;5015872;28;20050;-74
2021/12/13 02:10:38;;;;;;;178.45;68.28;;;;;;;10.14;100.00;102457.88;5015415;28;20069;-74
2021/12/13 02:13:15;;;;;;;173.02;64.50;;;;;;;10.04;100.00;102452.34;5014951;28;20048;-74
2021/12/13 02:18:33;;;;;;;235.73;74.25;;;;;;;10.07;100.00;102460.81;5004471;28;20045;-74
2021/12/13 02:21:06;;;;;;;186.07;67.75;;;;;;;10.08;100.00;102459.72;5004625;28;20045;-75
2021/12/13 02:23:35;;;;;;;253.15;78.78;;;;;;;10.03;100.00;102454.22;5002981;28;20073;-74
2021/12/13 02:26:01;;;;;;;194.23;69.15;;;;;;;10.04;100.00;102457.81;5002643;28;20037;-74
2021/12/13 02:28:30;;;;;;;203.05;73.68;;;;;;;10.00;100.00;102457.47;5001617;28;20045;-74
2021/12/13 02:31:01;;;;;;;225.15;77.65;;;;;;;10.06;100.00;102458.34;5001455;28;20517;-74
2021/12/13 02:33:43;;;;;;;202.10;72.82;;;;;;;10.00;100.00;102451.22;5000122;28;20050;-74
2021/12/13 02:36:13;;;;;;;190.18;67.85;;;;;;;9.89;100.00;102453.88;5000869;28;20119;-74
2021/12/13 02:38:40;;;;;;;185.60;68.80;;;;;;;9.90;100.00;102460.94;5000762;28;20041;-74
2021/12/13 02:41:08;;;;;;;240.27;77.45;;;;;;;9.88;100.00;102463.09;4999545;28;20085;-74
2021/12/13 02:43:40;;;;;;;202.45;72.03;;;;;;;9.83;100.00;102462.22;4998234;28;20042;-74
2021/12/13 02:46:06;;;;;;;261.70;80.35;;;;;;;9.84;100.00;102464.72;4999670;28;20095;-74
2021/12/13 02:48:43;;;;;;;179.90;67.53;;;;;;;9.83;100.00;102456.78;4981207;28;20030;-74
2021/12/13 02:51:36;;;;;;;202.82;72.43;;;;;;;9.86;100.00;102465.28;4981372;28;20057;-74
2021/12/13 02:54:07;;;;;;;219.77;72.90;;;;;;;9.83;100.00;102468.53;5000558;28;20042;-74
2021/12/13 02:56:37;;;;;;;236.63;75.83;;;;;;;9.78;100.00;102471.19;4981873;28;20045;-74
2021/12/13 02:59:06;;;;;;;266.98;79.88;;;;;;;9.76;100.00;102473.34;4981165;28;20065;-74
2021/12/13 03:01:53;;;;;;;285.55;86.30;;;;;;;9.80;100.00;102474.47;4980174;28;20415;-74
2021/12/13 03:04:21;;;;;;;211.85;72.22;;;;;;;9.81;100.00;102475.31;4998048;28;20053;-74
2021/12/13 03:06:58;;;;;;;172.60;65.22;;;;;;;9.74;100.00;102476.34;4980514;28;20436;-74
2021/12/13 03:09:27;;;;;;;234.10;75.13;;;;;;;9.81;100.00;102476.13;4998310;28;20129;-74
2021/12/13 03:11:55;;;;;;;171.38;63.55;;;;;;;9.76;100.00;102467.91;4990826;28;20081;-74
2021/12/13 03:14:29;;;;;;;151.15;59.78;;;;;;;9.72;100.00;102464.88;4997108;28;20042;-74
2021/12/13 03:17:04;;;;;;;145.32;56.70;;;;;;;9.73;100.00;102471.16;4997026;28;20088;-74
2021/12/13 03:19:42;;;;;;;183.15;65.72;;;;;;;9.75;100.00;102472.53;4979305;28;20048;-74
2021/12/13 03:22:39;;;;;;;144.10;57.97;;;;;;;9.70;100.00;102469.75;4997042;28;20054;-74
2021/12/13 03:25:28;;;;;;;153.30;56.28;;;;;;;9.55;100.00;102468.78;4996020;28;20149;-74
2021/12/13 03:28:18;;;;;;;124.00;53.65;;;;;;;9.72;100.00;102473.06;4978741;28;20046;-74
2021/12/13 03:30:56;;;;;;;164.73;59.85;;;;;;;9.70;100.00;102474.38;4996160;28;20590;-74
2021/12/13 03:33:43;;;;;;;127.35;52.63;;;;;;;9.61;100.00;102471.31;4978913;28;20059;-74
2021/12/13 03:36:17;;;;;;;142.05;55.00;;;;;;;9.62;100.00;102472.13;4994999;28;20046;-74
2021/12/13 03:38:49;;;;;;;122.75;51.50;;;;;;;9.60;100.00;102469.66;4978415;28;20144;-74
2021/12/13 03:41:19;;;;;;;168.48;58.80;;;;;;;9.68;100.00;102465.63;4974198;28;20050;-74
2021/12/13 03:43:56;;;;;;;194.25;62.90;;;;;;;9.72;100.00;102470.31;4993559;28;20069;-74
2021/12/13 03:46:25;;;;;;;185.60;63.58;;;;;;;9.56;100.00;102468.53;4996170;28;20037;-74
2021/12/13 03:48:53;;;;;;;233.93;75.00;;;;;;;9.55;100.00;102472.34;4995924;28;20034;-75
2021/12/13 03:51:22;;;;;;;174.30;63.67;;;;;;;9.41;100.00;102471.91;4978754;28;20084;-74
2021/12/13 03:53:50;;;;;;;165.40;59.30;;;;;;;9.40;100.00;102470.28;4995759;28;20046;-74
2021/12/13 03:56:22;;;;;;;157.65;61.40;;;;;;;9.56;100.00;102471.25;4995347;28;20042;-74
2021/12/13 03:58:52;;;;;;;144.90;55.95;;;;;;;9.43;100.00;102469.75;4994960;28;20128;-74
2021/12/13 04:01:24;;;;;;;151.15;58.15;;;;;;;9.46;100.00;102462.97;4994868;28;20050;-74
2021/12/13 04:03:52;;;;;;;;;;;;;;;9.45;100.00;102467.63;4995915;28;20073;-74
2021/12/13 04:06:20;;;;;;;156.63;56.95;;;;;;;9.37;100.00;102478.13;4995347;28;20504;-74
2021/12/13 04:08:49;;;;;;;144.25;56.03;;;;;;;9.42;100.00;102472.72;4977822;28;20046;-74
2021/12/13 04:11:15;;;;;;;150.63;56.92;;;;;;;9.43;100.00;102486.09;4994935;28;20041;-74
2021/12/13 04:13:53;;;;;;;199.00;65.53;;;;;;;9.50;100.00;102475.81;4978753;28;20042;-74
2021/12/13 04:16:36;;;;;;;144.55;56.45;;;;;;;9.44;100.00;102482.28;4996469;28;20054;-74
2021/12/13 04:19:06;;;;;;;134.80;51.30;;;;;;;9.59;100.00;102475.34;4977080;28;20073;-74
2021/12/13 04:21:37;;;;;;;169.07;58.22;;;;;;;9.45;100.00;102478.50;4993849;28;20044;-74
2021/12/13 04:24:07;;;;;;;163.47;57.17;;;;;;;9.44;100.00;102481.47;4976683;28;20373;-74
2021/12/13 04:26:38;;;;;;;171.60;57.47;;;;;;;9.56;100.00;102479.41;4995525;28;20042;-73
2021/12/13 04:29:03;;;;;;;145.85;54.63;;;;;;;9.42;100.00;102484.44;4995394;28;20101;-74
2021/12/13 04:31:36;;;;;;;146.98;51.25;;;;;;;9.36;100.00;102479.19;4995595;28;20038;-74
2021/12/13 04:34:05;;;;;;;136.10;49.88;;;;;;;9.27;100.00;102487.00;4996022;28;20041;-74
2021/12/13 04:36:34;;;;;;;151.63;55.58;;;;;;;9.30;100.00;102476.41;4994330;28;20293;-74
2021/12/13 04:39:13;;;;;;;134.57;52.90;;;;;;;9.32;100.00;102489.78;4995670;28;20044;-74
2021/12/13 04:42:00;;;;;;;133.93;51.10;;;;;;;9.30;100.00;102486.47;4994997;28;20080;-74
2021/12/13 04:44:49;;;;;;;120.38;45.95;;;;;;;9.34;100.00;102484.06;4982222;28;20475;-74
2021/12/13 04:47:25;;;;;;;137.75;49.13;;;;;;;9.26;100.00;102483.44;4995165;28;20368;-73
2021/12/13 04:49:59;;;;;;;136.70;52.05;;;;;;;9.23;100.00;102483.97;4978278;28;20057;-73
2021/12/13 04:52:25;;;;;;;143.38;54.28;;;;;;;9.22;100.00;102478.75;4995096;28;20049;-73
2021/12/13 04:54:55;;;;;;;158.98;55.47;;;;;;;9.23;100.00;102480.41;4992745;28;20042;-73
2021/12/13 04:57:22;;;;;;;132.48;50.53;;;;;;;9.17;100.00;102476.81;4994049;28;20098;-74
2021/12/13 04:59:56;;;;;;;148.55;53.13;;;;;;;9.30;100.00;102481.84;4998107;28;20099;-73
2021/12/13 05:02:23;;;;;;;148.23;52.47;;;;;;;9.30;100.00;102481.03;4989988;28;20057;-74
2021/12/13 05:04:58;;;;;;;141.40;53.65;;;;;;;9.31;100.00;102485.41;4976007;28;20075;-73
2021/12/13 05:07:25;;;;;;;146.77;53.45;;;;;;;9.22;100.00;102489.66;4990585;28;20339;-73
2021/12/13 05:09:52;;;;;;;143.68;58.15;;;;;;;9.28;100.00;102489.47;4975160;28;20234;-73
2021/12/13 05:12:22;;;;;;;145.95;58.50;;;;;;;9.28;100.00;102489.47;4973545;28;20077;-73
2021/12/13 05:14:53;;;;;;;145.05;56.83;;;;;;;9.19;100.00;102485.56;4975084;28;20042;-73
2021/12/13 05:17:23;;;;;;;151.35;60.97;;;;;;;9.19;100.00;102490.16;4975840;28;20171;-73
2021/12/13 05:19:57;;;;;;;167.05;61.17;;;;;;;9.24;100.00;102487.50;4974736;28;20050;-73
2021/12/13 05:22:23;;;;;;;187.23;65.63;;;;;;;9.19;100.00;102484.72;4976330;28;20038;-74
2021/12/13 05:25:01;;;;;;;196.32;68.22;;;;;;;9.24;100.00;102488.31;4974245;28;20487;-73
2021/12/13 05:27:40;;;;;;;172.15;63.45;;;;;;;9.18;100.00;102488.53;4976141;28;20085;-73
2021/12/13 05:30:20;;;;;;;178.63;64.30;;;;;;;9.20;100.00;102494.53;4975624;28;20045;-73
2021/12/13 05:32:50;;;;;;;172.73;64.82;;;;;;;9.19;100.00;102495.59;4992974;28;20081;-73
2021/12/13 05:35:18;;;;;;;177.60;66.47;;;;;;;9.12;100.00;102489.53;4993466;28;20049;-72
2021/12/13 05:37:48;;;;;;;172.27;65.68;;;;;;;9.17;100.00;102490.41;4975387;28;20042;-73
2021/12/13 05:40:24;;;;;;;182.75;67.35;;;;;;;9.12;100.00;102487.63;4993928;28;20077;-72
2021/12/13 05:42:57;;;;;;;172.68;64.53;;;;;;;9.11;100.00;102494.16;4994615;28;20050;-73
2021/12/13 05:45:36;;;;;;;202.82;67.53;;;;;;;9.20;100.00;102494.53;4994315;28;20084;-73
2021/12/13 05:48:12;;;;;;;164.13;58.55;;;;;;;9.05;100.00;102496.00;4992885;28;20077;-72
2021/12/13 05:50:42;;;;;;;166.40;61.00;;;;;;;9.07;100.00;102499.28;4997313;28;20101;-72
2021/12/13 05:53:13;;;;;;;154.65;59.42;;;;;;;9.05;100.00;102496.00;4978831;28;20045;-73
2021/12/13 05:56:11;;;;;;;179.35;65.05;;;;;;;9.10;100.00;102497.13;4997388;28;20432;-72
2021/12/13 05:58:45;;;;;;;157.73;59.47;;;;;;;8.98;100.00;102495.34;4996221;28;20037;-72
2021/12/13 06:01:26;;;;;;;159.85;59.33;;;;;;;9.03;100.00;102498.13;4989478;28;20101;-72
2021/12/13 06:04:07;;;;;;;155.88;59.50;;;;;;;9.00;100.00;102501.38;4997088;28;20254;-72
2021/12/13 06:06:43;;;;;;;141.27;55.53;;;;;;;8.90;100.00;102506.69;4997261;28;20551;-71
2021/12/13 06:09:09;;;;;;;174.10;61.22;;;;;;;9.02;100.00;102515.56;4996688;28;20049;-71
2021/12/13 06:11:34;;;;;;;148.95;56.08;;;;;;;9.06;100.00;102516.69;4997012;28;20038;-73
2021/12/13 06:14:21;;;;;;;161.57;58.50;;;;;;;8.96;100.00;102518.44;4979013;28;20535;-73
2021/12/13 06:16:53;;;;;;;135.35;50.83;;;;;;;8.90;100.00;102520.28;4998338;28;20448;-73
2021/12/13 06:19:29;;;;;;;140.23;54.43;;;;;;;9.00;100.00;102512.25;4999089;28;20053;-73
2021/12/13 06:22:14;;;;;;;144.90;51.53;;;;;;;8.89;100.00;102513.19;5000778;28;20147;-73
2021/12/13 06:25:04;;;;;;;131.65;48.53;;;;;;;8.89;100.00;102515.09;4986880;28;20045;-74
2021/12/13 06:27:39;;;;;;;126.68;47.42;;;;;;;8.90;100.00;102517.56;4985823;28;20362;-74
2021/12/13 06:30:16;;;;;;;147.13;49.70;;;;;;;8.99;100.00;102517.97;5004702;28;20033;-74
2021/12/13 06:33:06;;;;;;;127.80;46.85;;;;;;;8.87;100.00;102509.88;5005490;28;20050;-74
2021/12/13 06:35:44;;;;;;;141.25;49.80;;;;;;;8.84;100.00;102515.81;5010369;28;20030;-74
2021/12/13 06:38:19;;;;;;;121.80;46.80;;;;;;;8.81;100.00;102521.75;5020224;28;20045;-73
2021/12/13 06:40:58;;;;;;;125.55;46.80;;;;;;;8.89;100.00;102518.63;5022473;28;20054;-74
2021/12/13 06:43:32;;;;;;;120.70;44.83;;;;;;;8.83;100.00;102514.19;5007622;28;20056;-74
2021/12/13 06:46:00;;;;;;;124.80;46.03;;;;;;;8.93;100.00;102519.78;5005267;28;20365;-74
2021/12/13 06:49:00;;;;;;;134.43;50.42;;;;;;;9.00;100.00;102520.41;5015406;28;20437;-74
2021/12/13 06:51:59;;;;;;;104.25;43.08;;;;;;;8.94;100.00;102526.88;4984358;28;20121;-73
2021/12/13 06:54:25;;;;;;;138.52;49.15;;;;;;;8.97;100.00;102530.97;4995556;28;20354;-73
2021/12/13 06:56:55;;;;;;;131.15;48.78;;;;;;;9.00;100.00;102528.56;5005163;28;20044;-74
2021/12/13 06:59:22;;;;;;;126.40;46.92;;;;;;;8.98;100.00;102532.63;5004240;28;20037;-73
2021/12/13 07:02:23;;;;;;;125.18;46.65;;;;;;;8.96;100.00;102538.31;5003084;28;20184;-74
2021/12/13 07:05:00;;;;;;;118.05;47.45;;;;;;;9.10;100.00;102535.22;4996044;28;20088;-73
2021/12/13 07:07:59;;;;;;;110.10;42.63;;;;;;;9.05;100.00;102542.25;5006160;28;20077;-74
2021/12/13 07:10:30;;;;;;;116.85;46.60;;;;;;;8.95;100.00;102544.81;5004721;28;20068;-74
2021/12/13 07:13:01;;;;;;;121.88;48.05;;;;;;;9.00;100.00;102547.63;5005930;28;20363;-74
2021/12/13 07:15:31;;;;;;;129.05;49.80;;;;;;;8.99;100.00;102556.88;5004855;28;20195;-73
2021/12/13 07:18:17;;;;;;;112.13;46.35;;;;;;;9.01;100.00;102549.25;5003125;28;20168;-75
2021/12/13 07:20:57;;;;;;;124.63;47.95;;;;;;;8.98;100.00;102548.94;5000789;28;20048;-74
2021/12/13 07:23:23;;;;;;;130.18;49.28;;;;;;;9.03;100.00;102560.72;4997950;28;20042;-74
2021/12/13 07:25:52;;;;;;;126.22;46.72;;;;;;;8.95;100.00;102565.78;4998607;28;20077;-74
2021/12/13 07:28:36;;;;;;;129.02;49.63;;;;;;;8.93;100.00;102563.31;4980549;28;20100;-74
2021/12/13 07:31:08;;;;;;;110.10;46.25;;;;;;;8.92;100.00;102561.66;4978652;28;20486;-74
2021/12/13 07:33:42;;;;;;;123.00;46.67;;;;;;;8.92;100.00;102561.66;4979538;28;20108;-74
2021/12/13 07:36:22;;;;;;;130.13;46.42;;;;;;;8.83;100.00;102574.03;4979063;28;20482;-74
2021/12/13 07:39:16;;;;;;;123.50;47.13;;;;;;;8.96;100.00;102572.84;4997373;28;20042;-73
2021/12/13 07:41:55;;;;;;;101.88;42.63;;;;;;;8.84;100.00;102572.94;4990615;28;20370;-73
2021/12/13 07:44:33;;;;;;;105.03;43.90;;;;;;;8.89;100.00;102567.59;4997579;28;20124;-73
2021/12/13 07:47:12;;;;;;;117.90;44.35;;;;;;;8.92;100.00;102582.59;4996306;28;20517;-73
2021/12/13 07:49:42;;;;;;;115.68;43.15;;;;;;;8.90;100.00;102573.84;4964609;28;20080;-73
2021/12/13 07:52:21;;;;;;;101.70;42.38;;;;;;;8.87;100.00;102577.91;4977593;28;20050;-75
2021/12/13 07:54:47;;;;;;;94.22;40.35;;;;;;;8.86;100.00;102576.25;4976434;28;20054;-73
2021/12/13 07:57:28;;;;;;;103.82;40.72;;;;;;;8.88;100.00;102581.47;4976929;28;20776;-73
2021/12/13 07:59:54;;;;;;;104.80;41.55;;;;;;;8.95;100.00;102587.53;4959413;28;20065;-73
2021/12/13 08:02:25;;;;;;;94.20;38.70;;;;;;;8.99;100.00;102594.97;4976905;28;20129;-73
2021/12/13 08:04:59;;;;;;;94.95;38.33;;;;;;;8.85;100.00;102593.66;4976296;28;20049;-74
2021/12/13 08:07:28;;;;;;;94.85;38.60;;;;;;;8.93;100.00;102595.97;4975311;28;20503;-73
2021/12/13 08:09:58;;;;;;;87.70;37.60;;;;;;;8.94;100.00;102591.34;4975444;28;20042;-73
2021/12/13 08:12:33;;;;;;;107.68;41.15;;;;;;;8.98;100.00;102596.03;4992389;28;20128;-73
2021/12/13 08:15:18;;;;;;;100.63;40.08;;;;;;;8.97;100.00;102597.09;4977401;28;20403;-73
2021/12/13 08:18:03;;;;;;;105.05;39.47;;;;;;;8.96;100.00;102594.63;4995548;28;20046;-73
2021/12/13 08:20:48;;;;;;;90.55;36.50;;;;;;;8.92;100.00;102605.19;4995933;28;20124;-73
2021/12/13 08:23:17;;;;;;;94.70;39.28;;;;;;;8.98;100.00;102598.75;4995341;28;20074;-73
2021/12/13 08:25:46;;;;;;;90.53;36.95;;;;;;;8.94;100.00;102594.88;4976509;28;20534;-74
2021/12/13 08:28:15;;;;;;;86.75;36.17;;;;;;;8.99;100.00;102600.41;4961093;28;20037;-73
2021/12/13 08:30:56;;;;;;;79.85;34.67;;;;;;;8.93;100.00;102598.69;4976975;28;20056;-73
2021/12/13 08:33:45;;;;;;;87.20;37.03;;;;;;;9.05;100.00;102599.41;4995683;28;20065;-72
2021/12/13 08:36:18;;;;;;;77.85;32.80;;;;;;;8.98;100.00;102604.19;4994748;28;20045;-74
2021/12/13 08:38:48;;;;;;;70.90;32.25;;;;;;;9.07;100.00;102602.72;4995209;28;20132;-73
2021/12/13 08:41:48;;;;;;;71.35;30.58;;;;;;;9.02;100.00;102604.53;4995229;28;20045;-73
2021/12/13 08:44:31;;;;;;;66.18;30.30;;;;;;;8.99;100.00;102594.97;4996075;28;20150;-74
2021/12/13 08:47:07;;;;;;;72.68;31.15;;;;;;;9.04;100.00;102603.19;4995575;28;20045;-74
2021/12/13 08:49:45;;;;;;;65.03;29.58;;;;;;;9.03;100.00;102601.53;4981764;28;20046;-74
2021/12/13 08:52:14;;;;;;;60.63;29.63;;;;;;;9.05;100.00;102604.84;4976054;28;20042;-74
2021/12/13 08:54:54;;;;;;;61.10;28.63;;;;;;;9.04;100.00;102608.63;4976088;28;20101;-74
2021/12/13 08:57:26;;;;;;;64.03;28.50;;;;;;;9.11;100.00;102607.66;4958005;28;20046;-74
2021/12/13 08:59:53;;;;;;;56.22;26.85;;;;;;;9.17;100.00;102609.38;4981794;28;20277;-73
2021/12/13 09:02:21;;;;;;;61.05;28.98;;;;;;;9.19;100.00;102607.19;5002604;28;20034;-74
2021/12/13 09:05:06;;;;;;;55.15;25.95;;;;;;;9.28;100.00;102608.44;5015171;28;20049;-74
2021/12/13 09:07:32;;;;;;;49.58;25.92;;;;;;;9.20;100.00;102606.13;5015758;28;20439;-73
2021/12/13 09:10:00;;;;;;;55.90;27.05;;;;;;;9.19;100.00;102607.19;4996889;28;20045;-73
2021/12/13 09:12:43;;;;;;;65.53;28.70;;;;;;;9.36;100.00;102613.41;4994871;28;20167;-73
2021/12/13 09:15:26;;;;;;;51.00;24.95;;;;;;;9.24;100.00;102623.59;4994983;28;20097;-73
2021/12/13 09:17:52;;;;;;;51.30;24.98;;;;;;;9.25;100.00;102620.66;4977288;28;20038;-73
2021/12/13 09:20:28;;;;;;;51.97;24.42;;;;;;;9.20;100.00;102622.47;4995514;28;20476;-73
2021/12/13 09:22:55;;;;;;;52.53;25.13;;;;;;;9.18;100.00;102625.44;4995258;28;20037;-73
2021/12/13 09:25:53;;;;;;;53.67;25.05;;;;;;;9.21;100.00;102624.94;4980766;28;20493;-73
2021/12/13 09:28:23;;;;;;;48.88;23.58;;;;;;;9.27;100.00;102634.00;4998168;28;20555;-73
2021/12/13 09:30:48;;;;;;;43.83;21.75;;;;;;;9.05;100.00;102637.50;4998357;28;20156;-73
2021/12/13 09:33:33;;;;;;;48.53;23.77;;;;;;;9.14;100.00;102645.25;4999219;28;20451;-73
2021/12/13 09:36:09;;;;;;;48.30;22.50;;;;;;;9.25;100.00;102641.56;4998357;28;20045;-73
2021/12/13 09:38:52;;;;;;;50.80;24.88;;;;;;;9.24;100.00;102631.78;4998105;28;20041;-73
2021/12/13 09:41:24;;;;;;;47.53;23.10;;;;;;;9.23;100.00;102632.84;4997708;28;20084;-73
2021/12/13 09:43:58;;;;;;;46.35;23.42;;;;;;;9.33;100.00;102637.59;4997569;28;20045;-73
2021/12/13 09:46:45;;;;;;;50.30;23.85;;;;;;;9.32;100.00;102636.78;4996418;28;20078;-73
2021/12/13 09:49:38;;;;;;;49.95;23.38;;;;;;;9.35;100.00;102641.72;4996928;28;20052;-73
2021/12/13 09:52:10;;;;;;;50.00;21.92;;;;;;;9.27;100.00;102644.88;4999564;28;20451;-73
2021/12/13 09:54:40;;;;;;;40.85;21.23;;;;;;;9.26;100.00;102648.69;4998561;28;20076;-73
2021/12/13 09:57:14;;;;;;;43.55;23.05;;;;;;;9.29;100.00;102648.19;4980787;28;20108;-73
2021/12/13 09:59:47;;;;;;;47.10;22.23;;;;;;;9.35;100.00;102646.34;4998840;28;20052;-73
2021/12/13 10:02:21;;;;;;;47.78;21.65;;;;;;;9.40;100.00;102649.97;4997993;28;20115;-73
2021/12/13 10:04:49;;;;;;;47.03;22.92;;;;;;;9.46;100.00;102653.59;4998292;28;20152;-74
2021/12/13 10:07:31;;;;;;;44.03;22.08;;;;;;;9.48;100.00;102651.41;4980071;28;20060;-74
2021/12/13 10:10:05;;;;;;;40.97;21.77;;;;;;;9.29;100.00;102646.28;4976659;28;20038;-74
2021/12/13 10:12:44;;;;;;;51.22;23.73;;;;;;;9.43;100.00;102645.94;4991673;28;20554;-74
2021/12/13 10:15:28;;;;;;;39.25;19.60;;;;;;;9.40;100.00;102649.97;5003869;28;20057;-73
2021/12/13 10:18:06;;;;;;;37.83;20.48;;;;;;;9.56;100.00;102636.56;4989194;28;20469;-73
2021/12/13 10:20:53;;;;;;;36.65;20.02;;;;;;;9.47;100.00;102645.16;4994142;28;20044;-74
2021/12/13 10:23:24;;;;;;;37.85;19.65;;;;;;;9.47;100.00;102642.44;4983567;28;20408;-74
2021/12/13 10:25:54;;;;;;;37.53;19.67;;;;;;;9.55;100.00;102637.66;4977811;28;20455;-74
2021/12/13 10:28:27;;;;;;;40.17;20.50;;;;;;;9.42;100.00;102636.09;4996181;28;20116;-73
2021/12/13 10:30:58;;;;;;;37.60;19.23;;;;;;;9.40;100.00;102630.09;4993537;28;20042;-74
2021/12/13 10:33:25;;;;;;;36.10;18.73;;;;;;;9.26;100.00;102626.91;4974901;28;20042;-73
2021/12/13 10:35:53;;;;;;;38.60;18.67;;;;;;;9.34;100.00;102631.94;4969088;28;20041;-74
2021/12/13 10:38:29;;;;;;;35.03;18.65;;;;;;;9.40;100.00;102635.53;4978545;28;20401;-74
2021/12/13 10:41:01;;;;;;;37.47;20.02;;;;;;;9.36;100.00;102635.19;4996908;28;20089;-73
2021/12/13 10:43:35;;;;;;;35.47;19.88;;;;;;;9.43;100.00;102633.13;4998942;28;20038;-73
2021/12/13 10:46:11;;;;;;;35.90;18.83;;;;;;;9.55;100.00;102635.75;4996683;28;20042;-74
2021/12/13 10:48:44;;;;;;;37.47;19.90;;;;;;;9.49;100.00;102634.84;4976441;28;20133;-73
2021/12/13 10:51:21;;;;;;;35.28;18.35;;;;;;;9.47;100.00;102634.25;4962983;28;20048;-73
2021/12/13 10:53:50;;;;;;;30.17;17.38;;;;;;;9.45;100.00;102633.72;4995822;28;20496;-73
2021/12/13 10:56:25;;;;;;;34.15;18.02;;;;;;;9.59;100.00;102627.88;4979949;28;20683;-73
2021/12/13 10:58:53;;;;;;;35.60;17.98;;;;;;;9.56;100.00;102628.38;4996844;28;20037;-74
2021/12/13 11:01:45;;;;;;;30.73;15.55;;;;;;;9.50;100.00;102633.75;4978705;28;20046;-73
2021/12/13 11:04:21;;;;;;;34.67;18.48;;;;;;;9.58;100.00;102637.13;4979573;28;20052;-74
2021/12/13 11:06:47;;;;;;;41.83;17.73;;;;;;;9.55;100.00;102635.75;4998326;28;20103;-73
2021/12/13 11:09:19;;;;;;;33.97;17.95;;;;;;;9.59;100.00;102631.41;4998794;28;20072;-73
2021/12/13 11:12:04;;;;;;;33.90;17.60;;;;;;;9.55;100.00;102632.19;4980735;28;20042;-74
2021/12/13 11:14:33;;;;;;;33.42;17.63;;;;;;;9.58;100.00;102628.97;4980456;28;20529;-74
2021/12/13 11:17:06;;;;;;;31.17;17.33;;;;;;;9.52;100.00;102633.53;4998243;28;20141;-73
2021/12/13 11:19:35;;;;;;;29.27;17.33;;;;;;;9.55;100.00;102634.91;4981218;28;20056;-74
2021/12/13 11:22:07;;;;;;;30.42;18.08;;;;;;;9.59;100.00;102636.06;4998826;28;20058;-73
2021/12/13 11:24:36;;;;;;;32.58;18.67;;;;;;;9.62;100.00;102630.09;5000160;28;20063;-73
2021/12/13 11:27:10;;;;;;;30.05;18.55;;;;;;;9.42;100.00;102631.47;4982982;28;20053;-74
2021/12/13 11:29:37;;;;;;;35.30;19.80;;;;;;;9.56;100.00;102620.22;5000837;28;20258;-74
2021/12/13 11:32:37;;;;;;;31.70;18.25;;;;;;;9.63;100.00;102615.38;4982848;28;20163;-75
2021/12/13 11:35:11;;;;;;;29.67;16.38;;;;;;;9.44;100.00;102618.44;5002307;28;20041;-74
2021/12/13 11:38:05;;;;;;;24.60;16.17;;;;;;;9.58;100.00;102613.44;5001892;28;20042;-74
2021/12/13 11:41:00;;;;;;;27.05;16.50;;;;;;;9.65;100.00;102614.06;4979402;28;20342;-74
2021/12/13 11:43:44;;;;;;;28.48;16.08;;;;;;;9.74;100.00;102619.88;4978929;28;20299;-73
2021/12/13 11:46:09;;;;;;;29.33;16.42;;;;;;;9.66;100.00;102621.19;5009766;28;20050;-73
2021/12/13 11:48:44;;;;;;;29.63;15.57;;;;;;;9.68;100.00;102612.72;5005531;28;20483;-73